createdAt,value
2022-11-01T00:02:07.287Z,12.50
2022-11-01T00:04:34.226Z,12.40
2022-11-01T00:07:01.258Z,12.40
2022-11-01T00:09:28.185Z,12.40
2022-11-01T00:11:55.085Z,12.40
2022-11-01T00:14:22.025Z,12.40
2022-11-01T00:16:49.093Z,12.40
2022-11-01T00:19:16.029Z,12.40
2022-11-01T00:21:42.982Z,12.40
2022-11-01T00:24:09.941Z,12.40
2022-11-01T00:26:37.010Z,12.40
2022-11-01T00:29:04.463Z,12.40
2022-11-01T00:31:31.363Z,12.40
2022-11-01T00:33:58.259Z,12.40
2022-11-01T00:36:25.105Z,12.40
2022-11-01T00:38:52.667Z,12.40
2022-11-01T00:41:21.084Z,12.40
2022-11-01T00:43:48.513Z,12.40
2022-11-01T00:46:16.146Z,12.40
2022-11-01T00:48:43.159Z,12.40
2022-11-01T00:51:10.219Z,12.40
2022-11-01T00:53:37.137Z,12.40
2022-11-01T00:56:06.095Z,12.40
2022-11-01T00:58:33.134Z,12.40
2022-11-01T01:01:00.536Z,12.30
2022-11-01T01:03:27.669Z,12.40
2022-11-01T01:05:55.034Z,12.30
2022-11-01T01:08:22.372Z,12.30
2022-11-01T01:10:49.281Z,12.20
2022-11-01T01:13:16.766Z,12.30
2022-11-01T01:15:43.949Z,12.20
2022-11-01T01:18:11.273Z,12.30
2022-11-01T01:20:38.182Z,12.20
2022-11-01T01:23:05.424Z,12.20
2022-11-01T01:25:32.679Z,12.30
2022-11-01T01:27:59.860Z,12.20
2022-11-01T01:30:26.976Z,12.30
2022-11-01T01:32:53.877Z,12.30
2022-11-01T01:35:20.694Z,12.30
2022-11-01T01:37:47.573Z,12.30
2022-11-01T01:40:14.463Z,12.30
2022-11-01T01:42:42.992Z,12.30
2022-11-01T01:45:39.100Z,12.30
2022-11-01T01:48:23.097Z,12.30
2022-11-01T01:51:02.582Z,12.30
2022-11-01T01:53:48.323Z,12.40
2022-11-01T01:56:32.122Z,12.40
2022-11-01T01:59:09.512Z,12.40
2022-11-01T02:01:40.367Z,12.40
2022-11-01T02:04:21.063Z,12.40
2022-11-01T02:06:48.782Z,12.40
2022-11-01T02:09:16.471Z,12.40
2022-11-01T02:11:43.386Z,12.40
2022-11-01T02:14:10.523Z,12.30
2022-11-01T02:16:52.509Z,12.40
2022-11-01T02:19:31.562Z,12.30
2022-11-01T02:22:13.559Z,12.30
2022-11-01T02:25:03.438Z,12.30
2022-11-01T02:27:51.650Z,12.30
2022-11-01T02:30:24.173Z,12.30
2022-11-01T02:33:33.011Z,12.30
2022-11-01T02:36:23.103Z,12.30
2022-11-01T02:38:59.196Z,12.20
2022-11-01T02:41:39.795Z,12.20
2022-11-01T02:44:14.550Z,12.20
2022-11-01T02:47:01.949Z,12.20
2022-11-01T02:49:30.798Z,12.10
2022-11-01T02:51:59.455Z,12.20
2022-11-01T02:54:32.405Z,12.20
2022-11-01T02:57:06.276Z,12.20
2022-11-01T02:59:45.620Z,12.20
2022-11-01T03:02:41.614Z,12.10
2022-11-01T03:05:23.787Z,12.10
2022-11-01T03:07:57.078Z,12.10
2022-11-01T03:10:32.688Z,12.10
2022-11-01T03:13:08.428Z,12.10
2022-11-01T03:15:40.045Z,12.10
2022-11-01T03:18:13.744Z,12.10
2022-11-01T03:20:47.982Z,12.10
2022-11-01T03:23:18.107Z,12.10
2022-11-01T03:25:54.092Z,12.10
2022-11-01T03:28:22.849Z,12.00
2022-11-01T03:31:11.788Z,12.10
2022-11-01T03:33:43.730Z,12.10
2022-11-01T03:36:14.982Z,12.10
2022-11-01T03:38:49.326Z,12.10
2022-11-01T03:41:19.554Z,12.10
2022-11-01T03:43:47.858Z,12.10
2022-11-01T03:46:16.115Z,12.10
2022-11-01T03:48:43.136Z,12.10
2022-11-01T03:51:10.175Z,12.10
2022-11-01T03:53:37.397Z,12.10
2022-11-01T03:56:04.661Z,12.10
2022-11-01T03:58:46.667Z,12.10
2022-11-01T04:01:15.794Z,12.00
2022-11-01T04:03:43.468Z,12.00
2022-11-01T04:06:11.126Z,11.90
2022-11-01T04:08:38.087Z,11.90
2022-11-01T04:11:05.185Z,11.80
2022-11-01T04:13:32.124Z,11.80
2022-11-01T04:16:17.723Z,11.70
2022-11-01T04:19:13.595Z,11.70
2022-11-01T04:21:41.198Z,11.70
2022-11-01T04:24:09.285Z,11.70
2022-11-01T04:26:36.479Z,11.70
2022-11-01T04:29:03.475Z,11.70
2022-11-01T04:31:36.550Z,11.70
2022-11-01T04:34:05.174Z,11.80
2022-11-01T04:36:32.401Z,11.80
2022-11-01T04:38:59.557Z,11.80
2022-11-01T04:41:28.410Z,11.80
2022-11-01T04:43:57.645Z,11.90
2022-11-01T04:46:24.831Z,11.90
2022-11-01T04:48:51.792Z,11.90
2022-11-01T04:51:18.723Z,11.90
2022-11-01T04:53:45.616Z,11.90
2022-11-01T04:56:13.967Z,11.90
2022-11-01T04:58:44.854Z,11.90
2022-11-01T05:01:13.757Z,11.90
2022-11-01T05:03:40.828Z,11.90
2022-11-01T05:06:07.806Z,11.90
2022-11-01T05:08:34.708Z,12.00
2022-11-01T05:11:01.869Z,12.00
2022-11-01T05:13:28.820Z,12.00
2022-11-01T05:16:17.806Z,12.00
2022-11-01T05:18:43.194Z,12.00
2022-11-01T05:21:10.181Z,12.00
2022-11-01T05:23:37.061Z,12.00
2022-11-01T05:26:04.019Z,12.00
2022-11-01T05:28:30.943Z,12.10
2022-11-01T05:31:01.071Z,12.00
2022-11-01T05:33:27.992Z,12.00
2022-11-01T05:35:54.952Z,12.00
2022-11-01T05:38:21.879Z,12.10
2022-11-01T05:40:48.833Z,12.10
2022-11-01T08:43:03.966Z,10.90
2022-11-01T08:45:31.082Z,10.90
2022-11-01T08:47:59.818Z,10.90
2022-11-01T08:50:26.890Z,10.80
2022-11-01T08:52:53.794Z,10.80
2022-11-01T08:55:21.595Z,10.80
2022-11-01T08:57:48.568Z,10.80
2022-11-01T09:00:16.842Z,10.80
2022-11-01T09:02:43.750Z,10.80
2022-11-01T09:05:10.674Z,10.80
2022-11-01T09:07:38.618Z,10.80
2022-11-01T09:10:06.424Z,10.80
2022-11-01T09:12:33.936Z,10.80
2022-11-01T09:15:01.078Z,10.80
2022-11-01T09:17:28.338Z,10.80
2022-11-01T09:19:55.342Z,10.80
2022-11-01T09:22:22.578Z,10.80
2022-11-01T09:24:49.431Z,10.80
2022-11-01T09:27:16.391Z,10.80
2022-11-01T09:29:45.356Z,10.80
2022-11-01T09:32:15.009Z,10.80
2022-11-01T09:34:41.954Z,10.80
2022-11-01T09:37:08.800Z,10.80
2022-11-01T09:39:35.642Z,10.80
2022-11-01T09:42:06.812Z,10.80
2022-11-01T09:44:42.320Z,10.80
2022-11-01T09:47:25.608Z,10.80
2022-11-01T09:50:11.979Z,10.90
2022-11-01T09:52:41.182Z,10.90
2022-11-01T09:55:26.174Z,10.90
2022-11-01T09:58:17.561Z,10.90
2022-11-01T10:01:13.960Z,10.90
2022-11-01T10:04:00.598Z,10.90
2022-11-01T10:06:30.248Z,10.90
2022-11-01T10:09:25.471Z,10.90
2022-11-01T10:12:01.586Z,10.90
2022-11-01T10:14:37.182Z,11.00
2022-11-01T10:17:16.870Z,11.00
2022-11-01T10:19:49.287Z,11.00
2022-11-01T10:22:36.922Z,11.00
2022-11-01T10:25:19.413Z,11.10
2022-11-01T10:28:31.436Z,11.10
2022-11-01T10:31:03.733Z,11.10
2022-11-01T10:33:47.254Z,11.10
2022-11-01T10:36:18.350Z,11.20
2022-11-01T10:42:02.784Z,11.20
2022-11-01T10:44:31.626Z,11.20
2022-11-01T10:47:00.947Z,11.30
2022-11-01T10:50:00.518Z,11.30
2022-11-01T10:52:32.489Z,11.40
2022-11-01T10:55:01.486Z,11.50
2022-11-01T10:57:38.112Z,11.60
2022-11-01T11:00:14.215Z,11.60
2022-11-01T11:02:44.695Z,11.70
2022-11-01T11:05:19.053Z,11.70
2022-11-01T11:07:46.132Z,11.80
2022-11-01T11:10:27.556Z,11.80
2022-11-01T11:13:02.656Z,11.90
2022-11-01T11:15:56.775Z,11.90
2022-11-01T11:18:29.534Z,12.00
2022-11-01T11:21:00.434Z,12.10
2022-11-01T11:23:34.642Z,12.10
2022-11-01T11:26:08.200Z,12.20
2022-11-01T11:31:25.975Z,12.60
2022-11-01T11:34:01.249Z,13.10
2022-11-01T11:36:29.944Z,13.90
2022-11-01T11:38:57.652Z,14.40
2022-11-01T11:41:31.534Z,14.70
2022-11-01T11:44:00.334Z,15.30
2022-11-01T11:46:27.821Z,16.10
2022-11-01T11:49:07.194Z,16.40
2022-11-01T11:51:40.797Z,16.60
2022-11-01T11:54:24.836Z,17.20
2022-11-01T11:56:54.164Z,17.30
2022-11-01T11:59:30.849Z,16.30
2022-11-01T12:02:04.286Z,16.20
2022-11-01T12:04:40.260Z,15.80
2022-11-01T12:07:08.946Z,15.80
2022-11-01T12:09:38.616Z,15.70
2022-11-01T12:12:17.200Z,16.20
2022-11-01T12:14:44.283Z,16.20
2022-11-01T12:17:26.431Z,16.10
2022-11-01T12:20:00.823Z,15.90
2022-11-01T12:22:34.285Z,15.70
2022-11-01T12:25:08.387Z,15.60
2022-11-01T12:27:36.101Z,15.60
2022-11-01T12:30:19.448Z,15.70
2022-11-01T12:32:57.378Z,15.50
2022-11-01T12:35:32.619Z,15.30
2022-11-01T12:38:24.227Z,15.00
2022-11-01T12:40:52.936Z,14.70
2022-11-01T12:43:35.857Z,14.50
2022-11-01T12:46:16.456Z,14.30
2022-11-01T12:48:57.046Z,14.20
2022-11-01T12:51:29.138Z,14.00
2022-11-01T12:54:06.042Z,13.80
2022-11-01T12:56:33.198Z,13.70
2022-11-01T12:59:00.378Z,13.60
2022-11-01T13:02:04.556Z,13.60
2022-11-01T13:04:35.538Z,13.40
2022-11-01T13:07:23.957Z,13.40
2022-11-01T13:10:27.691Z,13.40
2022-11-01T13:13:11.577Z,13.40
2022-11-01T13:16:05.996Z,13.30
2022-11-01T13:18:59.804Z,13.30
2022-11-01T13:21:42.303Z,13.30
2022-11-01T13:24:12.222Z,13.30
2022-11-01T13:26:50.386Z,13.30
2022-11-01T13:29:25.891Z,13.30
2022-11-01T13:32:01.101Z,13.20
2022-11-01T13:34:46.174Z,13.10
2022-11-01T13:37:39.449Z,13.10
2022-11-01T13:40:09.912Z,13.00
2022-11-01T13:42:48.792Z,13.00
2022-11-01T13:45:29.260Z,13.00
2022-11-01T13:48:05.285Z,12.90
2022-11-01T13:50:54.142Z,12.80
2022-11-01T13:53:23.452Z,12.80
2022-11-01T13:55:57.598Z,12.80
2022-11-01T13:58:25.988Z,12.70
2022-11-01T14:00:55.713Z,12.70
2022-11-01T14:03:25.721Z,12.70
2022-11-01T14:06:07.904Z,12.70
2022-11-01T14:08:47.163Z,12.60
2022-11-01T14:14:30.299Z,12.70
2022-11-01T14:17:15.971Z,12.60
2022-11-01T14:19:43.657Z,12.50
2022-11-01T14:22:22.984Z,12.40
2022-11-01T14:24:58.931Z,12.40
2022-11-01T14:27:28.855Z,12.40
2022-11-01T14:29:56.848Z,12.40
2022-11-01T14:32:27.926Z,12.40
2022-11-01T14:35:30.662Z,12.40
2022-11-01T14:38:05.494Z,12.30
2022-11-01T14:40:35.611Z,12.40
2022-11-01T14:43:25.797Z,12.40
2022-11-01T14:46:02.754Z,12.30
2022-11-01T14:48:40.118Z,12.20
2022-11-01T14:51:26.989Z,12.20
2022-11-01T14:54:23.247Z,12.10
2022-11-01T14:56:52.906Z,12.10
2022-11-01T14:59:28.381Z,12.00
2022-11-01T15:02:06.572Z,11.90
2022-11-01T15:04:40.915Z,11.80
2022-11-01T15:07:27.792Z,11.80
2022-11-01T15:10:01.456Z,11.70
2022-11-01T15:12:33.362Z,11.70
2022-11-01T15:15:01.132Z,11.70
2022-11-01T15:17:33.503Z,11.70
2022-11-01T15:20:08.629Z,11.70
2022-11-01T15:22:35.506Z,11.70
2022-11-01T15:25:05.482Z,11.60
2022-11-01T15:27:44.121Z,11.60
2022-11-01T15:30:21.731Z,11.60
2022-11-01T15:32:53.915Z,11.50
2022-11-01T15:35:26.114Z,11.50
2022-11-01T15:37:54.643Z,11.50
2022-11-01T15:40:31.677Z,11.40
2022-11-01T15:43:04.065Z,11.40
2022-11-01T15:45:36.896Z,11.40
2022-11-01T15:48:12.651Z,11.30
2022-11-01T15:50:46.171Z,11.30
2022-11-01T15:53:19.088Z,11.40
2022-11-01T15:55:54.888Z,11.30
2022-11-01T15:58:44.879Z,11.20
2022-11-01T16:01:16.293Z,11.30
2022-11-01T16:03:55.591Z,11.30
2022-11-01T16:06:29.243Z,11.20
2022-11-01T16:08:59.916Z,11.10
2022-11-01T16:11:30.204Z,11.10
2022-11-01T16:14:07.427Z,11.00
2022-11-01T16:17:04.201Z,11.10
2022-11-01T16:19:48.353Z,11.00
2022-11-01T16:22:30.228Z,11.10
2022-11-01T16:25:24.134Z,11.00
2022-11-01T16:27:58.191Z,11.00
2022-11-01T16:30:46.300Z,11.00
2022-11-01T16:33:31.167Z,10.90
2022-11-01T16:36:03.435Z,10.90
2022-11-01T16:38:33.146Z,10.80
2022-11-01T16:41:03.002Z,10.90
2022-11-01T16:43:32.991Z,10.90
2022-11-01T16:46:01.131Z,10.80
2022-11-01T16:48:33.972Z,10.80
2022-11-01T16:51:02.126Z,10.80
2022-11-01T16:53:30.528Z,10.80
2022-11-01T16:56:30.652Z,10.80
2022-11-01T16:58:59.062Z,10.70
2022-11-01T17:01:34.212Z,10.70
2022-11-01T17:04:02.660Z,10.70
2022-11-01T17:06:32.293Z,10.70
2022-11-01T17:09:01.617Z,10.60
2022-11-01T17:11:28.462Z,10.60
2022-11-01T17:13:55.318Z,10.50
2022-11-01T17:16:25.672Z,10.60
2022-11-01T17:18:55.403Z,10.50
2022-11-01T17:21:22.934Z,10.50
2022-11-01T17:23:54.040Z,10.50
2022-11-01T17:26:23.814Z,10.50
2022-11-01T17:28:52.447Z,10.40
2022-11-01T17:31:19.561Z,10.40
2022-11-01T17:33:46.511Z,10.40
2022-11-01T17:36:15.420Z,10.40
2022-11-01T17:38:43.059Z,10.30
2022-11-01T17:41:14.621Z,10.30
2022-11-01T17:43:41.548Z,10.40
2022-11-01T17:46:24.317Z,10.50
2022-11-01T17:48:51.553Z,10.60
2022-11-01T17:51:27.191Z,10.50
2022-11-01T17:53:56.303Z,10.60
2022-11-01T17:56:26.718Z,10.60
2022-11-01T17:58:54.306Z,10.70
2022-11-01T18:01:29.014Z,10.60
2022-11-01T18:04:02.630Z,10.50
2022-11-01T18:06:33.300Z,10.50
2022-11-01T18:09:01.375Z,10.50
2022-11-01T18:11:44.582Z,10.40
2022-11-01T18:14:41.937Z,10.40
2022-11-01T18:17:35.804Z,10.30
2022-11-01T18:20:26.478Z,10.30
2022-11-01T18:23:08.775Z,10.20
2022-11-01T18:25:47.364Z,10.20
2022-11-01T18:28:30.389Z,10.10
2022-11-01T18:31:00.364Z,10.10
2022-11-01T18:33:55.978Z,10.10
2022-11-01T18:36:53.735Z,10.10
2022-11-01T18:39:39.409Z,10.10
2022-11-01T18:42:09.330Z,10.00
2022-11-01T18:44:37.809Z,10.00
2022-11-01T18:47:27.303Z,9.90
2022-11-01T18:49:56.366Z,9.90
2022-11-01T18:52:24.127Z,9.80
2022-11-01T18:54:56.677Z,9.80
2022-11-01T18:57:24.787Z,9.80
2022-11-01T18:59:53.364Z,9.70
2022-11-01T19:02:28.311Z,9.70
2022-11-01T19:05:15.020Z,9.70
2022-11-01T19:08:09.183Z,9.60
2022-11-01T19:10:28.750Z,9.60
2022-11-01T19:12:56.286Z,9.60
2022-11-01T19:15:29.518Z,9.50
2022-11-01T19:18:03.542Z,9.50
2022-11-01T19:20:32.066Z,9.50
2022-11-01T19:23:04.115Z,9.40
2022-11-01T19:25:33.379Z,9.40
2022-11-01T19:28:05.164Z,9.30
2022-11-01T19:30:33.371Z,9.30
2022-11-01T19:33:24.956Z,9.20
2022-11-01T19:35:54.515Z,9.10
2022-11-01T19:38:22.164Z,9.00
2022-11-01T19:40:52.197Z,9.00
2022-11-01T19:43:25.290Z,8.90
2022-11-01T19:45:54.314Z,8.80
2022-11-01T19:48:25.325Z,8.80
2022-11-01T19:50:52.267Z,8.70
2022-11-01T19:53:27.591Z,8.70
2022-11-01T19:56:10.189Z,8.70
2022-11-01T19:58:57.754Z,8.60
2022-11-01T20:01:40.885Z,8.60
2022-11-01T20:04:29.025Z,8.60
2022-11-01T20:06:57.806Z,8.60
2022-11-01T20:09:28.158Z,8.70
2022-11-01T20:11:55.215Z,8.70
2022-11-01T20:14:22.455Z,8.80
2022-11-01T20:16:49.597Z,8.90
2022-11-01T20:19:18.008Z,8.90
2022-11-01T20:21:45.541Z,9.00
2022-11-01T20:24:12.723Z,9.00
2022-11-01T20:26:39.971Z,8.90
2022-11-01T20:29:06.892Z,8.90
2022-11-01T20:31:33.873Z,8.90
2022-11-01T20:34:00.947Z,8.90
2022-11-01T20:36:28.417Z,8.90
2022-11-01T20:38:55.504Z,8.90
2022-11-01T20:41:22.508Z,8.80
2022-11-01T23:12:42.633Z,7.80
2022-11-01T23:15:28.123Z,7.70
2022-11-01T23:18:01.975Z,7.70
2022-11-01T23:20:30.038Z,7.60
2022-11-01T23:22:57.119Z,7.50
2022-11-01T23:25:25.527Z,7.40
2022-11-01T23:27:53.979Z,7.40
2022-11-01T23:30:20.886Z,7.40
2022-11-01T23:32:47.948Z,7.40
2022-11-01T23:35:19.404Z,7.30
2022-11-01T23:37:46.757Z,7.20
2022-11-01T23:40:19.880Z,7.20
2022-11-01T23:42:48.554Z,7.20
2022-11-01T23:45:28.142Z,7.10
2022-11-01T23:47:55.723Z,7.10
2022-11-01T23:50:37.059Z,7.00
2022-11-01T23:53:06.836Z,6.90
2022-11-01T23:55:38.090Z,6.90
2022-11-01T23:58:12.541Z,6.90
